Time;durP1;ratioP1;P1;durP2;ratioP2;P2;SDS_P1;SDS_P2;PMS_P1;PMS_P2;Temp;Humidity;BMP_temperature;BMP_pressure;BME280_temperature;BME280_humidity;BME280_pressure;Samples;Min_cycle;Max_cycle;Signal;HPM_P1;HPM_P2
2022/08/19 00:03:59;;;;;;;4.30;3.47;;;;;;;18.41;68.58;95736.63;10318364;28;96688;-58
2022/08/19 00:09:05;;;;;;;4.00;3.60;;;;;;;18.43;68.51;95734.59;10331112;28;96792;-58
2022/08/19 00:14:11;;;;;;;4.93;3.75;;;;;;;18.45;68.15;95739.66;10318472;28;96835;-58
2022/08/19 00:19:14;;;;;;;3.65;3.10;;;;;;;18.37;68.72;95732.75;10328944;28;98566;-57
2022/08/19 00:24:17;;;;;;;4.93;3.58;;;;;;;18.28;69.08;95732.19;10323300;28;96973;-58
2022/08/19 00:29:22;;;;;;;5.28;3.75;;;;;;;18.22;68.96;95729.56;10325080;28;96845;-58
2022/08/19 00:34:27;;;;;;;5.22;3.60;;;;;;;18.26;68.73;95733.44;10323055;28;96970;-58
2022/08/19 00:39:30;;;;;;;4.22;3.63;;;;;;;18.24;69.44;95730.97;10327520;28;98728;-58
2022/08/19 00:44:35;;;;;;;6.10;3.53;;;;;;;18.17;69.72;95724.91;10330715;28;98873;-58
2022/08/19 00:49:41;;;;;;;;;;;;;;;18.16;68.99;95727.75;10333282;28;96783;-59
2022/08/19 00:54:44;;;;;;;4.57;3.75;;;;;;;18.11;69.98;95720.44;10322054;28;98618;-58
2022/08/19 00:59:54;;;;;;;4.43;4.03;;;;;;;17.91;70.75;95731.88;10324764;28;96803;-57
2022/08/19 01:05:10;;;;;;;4.82;3.67;;;;;;;17.89;70.90;95735.72;10320258;28;97610;-58
2022/08/19 01:10:15;;;;;;;4.97;3.88;;;;;;;17.95;70.91;95727.00;10324138;28;97878;-58
2022/08/19 01:15:24;;;;;;;5.45;4.60;;;;;;;18.05;70.98;95724.72;10327241;28;97026;-58
2022/08/19 01:20:27;;;;;;;4.72;4.00;;;;;;;18.06;70.99;95718.41;10325090;28;97567;-58
2022/08/19 01:25:36;;;;;;;6.90;4.95;;;;;;;18.15;71.09;95723.47;10322562;28;98071;-57
2022/08/19 01:30:40;;;;;;;4.70;4.20;;;;;;;18.19;71.25;95728.16;10327369;28;98133;-58
2022/08/19 01:35:52;;;;;;;4.60;3.95;;;;;;;18.22;71.18;95734.84;10326367;28;97216;-58
2022/08/19 01:40:57;;;;;;;4.25;3.85;;;;;;;18.12;71.55;95744.03;10323851;28;97150;-58
2022/08/19 01:46:00;;;;;;;6.15;3.95;;;;;;;17.94;72.00;95757.06;10314392;28;98104;-57
2022/08/19 01:51:03;;;;;;;6.05;4.65;;;;;;;17.81;72.44;95767.63;10314983;28;96892;-58
2022/08/19 01:56:08;;;;;;;4.68;4.20;;;;;;;17.75;73.27;95780.66;10327516;28;96852;-57
2022/08/19 02:01:11;;;;;;;4.88;4.40;;;;;;;17.81;73.02;95794.88;10320845;28;98388;-58
2022/08/19 02:06:14;;;;;;;6.00;4.32;;;;;;;17.85;72.82;95806.66;10325005;28;96815;-58
2022/08/19 02:11:26;;;;;;;7.28;4.85;;;;;;;17.84;73.61;95820.91;10324552;28;98071;-58
2022/08/19 02:16:30;;;;;;;7.13;3.78;;;;;;;17.84;72.67;95814.78;10330772;28;97175;-58
2022/08/19 02:21:33;;;;;;;7.27;4.63;;;;;;;17.83;74.50;95807.88;10329717;28;98659;-59
2022/08/19 02:26:37;;;;;;;6.97;5.07;;;;;;;17.84;74.99;95798.94;10328243;28;96863;-58
2022/08/19 02:31:41;;;;;;;10.18;5.45;;;;;;;17.84;75.43;95793.66;10315692;28;97831;-58
2022/08/19 02:36:44;;;;;;;5.03;3.83;;;;;;;17.73;75.65;95803.81;10317509;28;96791;-57
2022/08/19 02:41:54;;;;;;;5.43;4.40;;;;;;;17.66;76.30;95812.75;10328498;28;96761;-59
2022/08/19 02:46:57;;;;;;;7.80;4.65;;;;;;;17.46;76.90;95808.25;10312989;28;96992;-58
2022/08/19 02:52:00;;;;;;;6.65;4.85;;;;;;;17.16;77.74;95813.06;10319024;28;96940;-57
2022/08/19 02:57:05;;;;;;;6.00;5.05;;;;;;;17.07;78.87;95808.97;10321165;28;96758;-57
2022/08/19 03:02:08;;;;;;;5.07;4.10;;;;;;;17.01;78.77;95807.97;10327213;28;97523;-57
2022/08/19 03:07:14;;;;;;;6.50;3.67;;;;;;;16.90;78.89;95819.91;10334642;28;97170;-58
2022/08/19 03:12:18;;;;;;;4.72;3.55;;;;;;;16.88;78.74;95811.34;10330257;28;96918;-58
2022/08/19 03:17:21;;;;;;;5.20;3.20;;;;;;;16.86;79.18;95823.94;10334408;28;96902;-57
2022/08/19 03:22:25;;;;;;;5.78;3.33;;;;;;;16.93;79.08;95822.13;10333111;28;96871;-57
2022/08/19 03:27:29;;;;;;;5.25;3.63;;;;;;;17.04;78.80;95835.75;10327611;28;98121;-58
2022/08/19 03:32:36;;;;;;;4.18;3.20;;;;;;;16.88;79.01;95835.09;10333934;28;98565;-57
2022/08/19 03:37:47;;;;;;;8.85;4.07;;;;;;;16.66;79.79;95833.53;10315263;28;96864;-59
2022/08/19 03:42:51;;;;;;;4.75;3.05;;;;;;;16.59;80.47;95844.09;10320274;28;96724;-57
2022/08/19 03:47:54;;;;;;;4.90;3.37;;;;;;;16.55;80.67;95843.63;10324498;28;96971;-58
2022/08/19 03:52:57;;;;;;;4.40;3.13;;;;;;;16.51;80.72;95847.69;10317250;28;96807;-58
2022/08/19 03:58:01;;;;;;;6.03;3.38;;;;;;;16.49;80.85;95848.91;10327708;28;98761;-57
2022/08/19 04:03:04;;;;;;;5.23;3.30;;;;;;;16.55;80.33;95853.38;10322672;28;96842;-57
2022/08/19 04:08:06;;;;;;;5.45;4.00;;;;;;;16.54;80.81;95865.75;10322369;28;96873;-58
2022/08/19 04:13:17;;;;;;;4.82;3.20;;;;;;;16.40;81.34;95862.22;10324579;28;96787;-57
2022/08/19 04:18:20;;;;;;;8.63;3.47;;;;;;;16.47;81.32;95869.34;10334138;28;97231;-58
2022/08/19 04:23:24;;;;;;;4.95;3.53;;;;;;;16.36;81.81;95865.44;10334337;28;96940;-57
2022/08/19 04:28:28;;;;;;;5.35;3.55;;;;;;;16.18;82.07;95864.09;10319422;28;96754;-58
2022/08/19 04:33:33;;;;;;;5.55;3.67;;;;;;;16.07;82.93;95875.19;10333077;28;96771;-57
2022/08/19 04:38:36;;;;;;;5.82;4.25;;;;;;;16.12;82.90;95878.06;10326141;28;97815;-58
2022/08/19 04:43:40;;;;;;;6.05;4.35;;;;;;;16.21;83.02;95892.72;10325637;28;96995;-58
2022/08/19 04:48:43;;;;;;;6.03;4.20;;;;;;;16.34;82.50;95904.34;10318474;28;97048;-58
2022/08/19 04:53:52;;;;;;;5.82;4.57;;;;;;;16.38;82.47;95921.41;10323993;28;97082;-58
2022/08/19 04:58:57;;;;;;;6.00;4.25;;;;;;;16.35;82.68;95919.97;10325861;28;96729;-58
2022/08/19 05:04:01;;;;;;;6.13;3.97;;;;;;;16.38;82.54;95926.69;10332016;28;96852;-57
2022/08/19 05:09:06;;;;;;;7.20;3.97;;;;;;;16.38;82.65;95926.69;10322517;28;97365;-57
2022/08/19 05:14:12;;;;;;;;;;;;;;;16.35;82.26;95933.16;10326881;28;96871;-57
2022/08/19 05:24:43;;;;;;;5.10;4.03;;;;;;;16.34;82.71;95936.78;10320565;28;97169;-58
2022/08/19 05:30:09;;;;;;;5.07;3.80;;;;;;;16.36;82.84;95945.34;10315990;28;97426;-58
2022/08/19 05:35:12;;;;;;;5.15;4.05;;;;;;;16.37;82.63;95952.22;10316498;28;97006;-58
2022/08/19 05:40:15;;;;;;;5.05;3.63;;;;;;;16.38;83.17;95953.88;10324807;28;97960;-58
2022/08/19 05:45:21;;;;;;;4.53;4.13;;;;;;;16.36;83.39;95953.25;10318179;28;98170;-58
2022/08/19 05:50:25;;;;;;;4.63;4.22;;;;;;;16.25;83.70;95948.50;10319748;28;97442;-58
2022/08/19 05:55:27;;;;;;;5.03;4.53;;;;;;;16.35;83.40;95951.63;10321298;28;97067;-58
2022/08/19 06:00:32;;;;;;;5.13;4.63;;;;;;;16.36;83.65;95963.81;10323323;28;97627;-58
2022/08/19 06:05:34;;;;;;;6.18;4.45;;;;;;;16.48;83.05;95979.09;10329709;28;96804;-58
2022/08/19 06:10:51;;;;;;;7.53;4.05;;;;;;;16.59;83.06;95991.75;10313080;28;97883;-58
2022/08/19 06:15:55;;;;;;;5.28;4.35;;;;;;;16.67;83.20;95993.44;10327033;28;96813;-58
2022/08/19 06:20:58;;;;;;;5.50;4.40;;;;;;;16.59;83.03;96003.13;10328997;28;96688;-58
2022/08/19 06:26:01;;;;;;;4.40;3.28;;;;;;;16.67;82.80;96011.88;10330106;28;96824;-58
2022/08/19 06:31:08;;;;;;;4.13;3.72;;;;;;;16.66;82.27;96004.97;10331840;28;96910;-57
2022/08/19 06:36:18;;;;;;;4.28;3.45;;;;;;;16.64;82.47;96015.75;10329824;28;96952;-58
2022/08/19 06:41:21;;;;;;;6.10;4.13;;;;;;;16.67;82.23;96025.06;10335543;28;97735;-58
2022/08/19 06:46:26;;;;;;;4.93;4.43;;;;;;;16.62;82.23;96023.84;10336295;28;96813;-58
2022/08/19 06:51:30;;;;;;;7.78;5.20;;;;;;;16.56;81.84;96035.13;10336763;28;97106;-58
2022/08/19 06:56:34;;;;;;;7.47;5.95;;;;;;;16.67;81.61;96046.19;10337537;28;96904;-58
2022/08/19 07:01:41;;;;;;;6.33;5.20;;;;;;;16.74;81.20;96050.50;10336765;28;97000;-58
2022/08/19 07:06:44;;;;;;;6.13;5.20;;;;;;;16.80;80.93;96067.44;10337094;28;96948;-58
2022/08/19 07:11:57;;;;;;;10.27;6.07;;;;;;;16.86;80.67;96060.56;10327693;28;97085;-58
2022/08/19 07:17:02;;;;;;;8.13;6.03;;;;;;;16.89;80.72;96071.56;10336541;28;96838;-57
2022/08/19 07:22:07;;;;;;;9.35;6.40;;;;;;;16.90;80.50;96088.19;10336073;28;97251;-57
2022/08/19 07:27:15;;;;;;;8.65;6.88;;;;;;;16.85;80.45;96070.31;10336178;28;96762;-57
2022/08/19 07:32:19;;;;;;;10.83;7.53;;;;;;;16.76;81.07;96076.72;10335604;28;96787;-58
2022/08/19 07:37:22;;;;;;;8.93;7.28;;;;;;;16.74;81.49;96083.97;10327130;28;97812;-58
2022/08/19 07:42:25;;;;;;;11.77;8.65;;;;;;;16.59;82.53;96082.22;10334565;28;96975;-57
2022/08/19 07:47:30;;;;;;;12.43;9.60;;;;;;;16.49;82.95;96076.47;10335772;28;96838;-58
2022/08/19 07:52:52;;;;;;;11.00;8.57;;;;;;;16.45;83.34;96075.22;10325662;28;96915;-58
2022/08/19 07:57:55;;;;;;;9.65;7.88;;;;;;;16.52;83.51;96073.44;10335201;28;96872;-58
2022/08/19 08:02:59;;;;;;;9.70;8.57;;;;;;;16.59;83.57;96066.41;10334316;28;96772;-58
2022/08/19 08:13:29;;;;;;;7.90;7.07;;;;;;;17.13;82.61;96078.22;10334555;28;96877;-58
2022/08/19 08:18:41;;;;;;;9.03;6.77;;;;;;;17.34;82.28;96085.25;10334634;28;97106;-58
2022/08/19 08:23:43;;;;;;;7.00;6.30;;;;;;;17.57;82.14;96084.16;10334266;28;97862;-58
2022/08/19 08:28:47;;;;;;;6.40;5.75;;;;;;;17.82;81.07;96092.44;10334055;28;97519;-58
2022/08/19 08:33:52;;;;;;;;;;;;;;;18.05;81.16;96100.06;10334481;28;97012;-58
2022/08/19 08:38:56;;;;;;;6.13;4.95;;;;;;;18.19;80.48;96100.13;10334825;28;96669;-58
2022/08/19 08:43:59;;;;;;;;;;;;;;;18.32;80.40;96102.78;10333306;28;96730;-57
2022/08/19 08:49:24;;;;;;;4.90;4.40;;;;;;;18.23;80.22;96110.06;10330623;28;96896;-58
2022/08/19 08:54:33;;;;;;;5.60;4.20;;;;;;;18.26;80.22;96119.47;10321087;28;96994;-58
2022/08/19 08:59:41;;;;;;;4.43;4.03;;;;;;;18.25;79.97;96108.03;10333714;28;97109;-58
2022/08/19 09:04:45;;;;;;;5.47;4.60;;;;;;;18.39;79.50;96108.09;10333177;28;96745;-58
2022/08/19 09:09:53;;;;;;;6.57;4.68;;;;;;;18.50;80.30;96110.97;10332694;28;96792;-57
2022/08/19 09:15:01;;;;;;;6.00;4.63;;;;;;;18.78;79.80;96111.81;10332951;28;97146;-58
2022/08/19 09:20:14;;;;;;;5.72;4.68;;;;;;;18.87;79.24;96116.72;10329022;28;96770;-58
2022/08/19 09:25:21;;;;;;;5.30;4.70;;;;;;;19.00;79.53;96112.47;10332089;28;96831;-59
2022/08/19 09:30:31;;;;;;;4.70;4.20;;;;;;;19.14;79.38;96116.75;10332411;28;96760;-58
2022/08/19 09:35:36;;;;;;;7.68;5.05;;;;;;;19.22;79.07;96124.47;10331800;28;96810;-57
2022/08/19 09:40:55;;;;;;;5.60;4.70;;;;;;;19.42;79.12;96118.34;10331759;28;96963;-58
2022/08/19 09:46:00;;;;;;;5.10;4.60;;;;;;;19.37;77.75;96128.75;10330411;28;97963;-58
2022/08/19 09:51:07;;;;;;;5.68;5.07;;;;;;;19.32;77.05;96139.16;10331504;28;97655;-57
2022/08/19 09:56:14;;;;;;;5.10;4.60;;;;;;;19.34;77.53;96139.75;10331476;28;96777;-58
2022/08/19 10:01:24;;;;;;;6.38;5.00;;;;;;;19.23;76.40;96144.66;10331452;28;96684;-57
2022/08/19 10:06:32;;;;;;;5.25;4.75;;;;;;;19.18;76.13;96144.44;10330447;28;96797;-59
2022/08/19 10:11:49;;;;;;;5.32;4.85;;;;;;;19.25;76.40;96139.16;10329663;28;97198;-58
2022/08/19 10:16:56;;;;;;;5.13;4.70;;;;;;;19.42;76.81;96145.66;10330763;28;96770;-58
2022/08/19 10:22:04;;;;;;;5.95;5.35;;;;;;;19.66;75.60;96145.19;10331705;28;97151;-58
2022/08/19 10:27:13;;;;;;;5.88;5.25;;;;;;;19.56;75.63;96154.41;10330934;28;97176;-58
2022/08/19 10:32:17;;;;;;;5.53;5.03;;;;;;;19.24;74.53;96154.22;10330187;28;96816;-58
2022/08/19 10:37:38;;;;;;;5.80;5.15;;;;;;;19.21;74.30;96170.53;10329013;28;96832;-58
2022/08/19 10:42:59;;;;;;;6.60;5.88;;;;;;;19.22;75.61;96171.31;10330428;28;97276;-58
2022/08/19 10:48:02;;;;;;;5.78;5.28;;;;;;;19.25;74.73;96170.94;10329906;28;96824;-58
2022/08/19 10:53:09;;;;;;;6.75;5.75;;;;;;;19.42;74.84;96171.34;10329544;28;97656;-58
2022/08/19 10:58:13;;;;;;;6.55;5.88;;;;;;;19.74;73.85;96176.78;10330226;28;96943;-57
2022/08/19 11:03:16;;;;;;;6.75;5.60;;;;;;;19.98;73.28;96172.69;10329816;28;96759;-59
2022/08/19 11:08:20;;;;;;;6.43;5.80;;;;;;;20.28;73.03;96170.31;10329719;28;96913;-58
2022/08/19 11:13:26;;;;;;;5.80;5.28;;;;;;;20.52;71.25;96170.63;10330365;28;98633;-57
2022/08/19 11:18:29;;;;;;;5.47;4.97;;;;;;;20.36;70.68;96170.09;10332298;28;96909;-58
2022/08/19 11:23:33;;;;;;;6.25;4.97;;;;;;;20.29;69.74;96171.97;10336447;28;97096;-58
2022/08/19 11:28:37;;;;;;;5.20;4.72;;;;;;;20.27;68.70;96163.41;10335213;28;96799;-58
2022/08/19 11:33:40;;;;;;;6.10;5.40;;;;;;;20.21;69.82;96158.94;10335881;28;96996;-58
2022/08/19 11:38:44;;;;;;;6.65;5.95;;;;;;;20.21;69.50;96164.25;10335367;28;97142;-57
2022/08/19 11:43:47;;;;;;;5.50;5.00;;;;;;;20.57;70.37;96166.31;10335419;28;96790;-58
2022/08/19 11:48:50;;;;;;;7.18;6.55;;;;;;;21.08;70.13;96174.41;10335315;28;97034;-58
2022/08/19 11:53:56;;;;;;;7.18;5.70;;;;;;;21.37;67.74;96178.25;10335768;28;98798;-57
2022/08/19 11:58:59;;;;;;;5.85;5.20;;;;;;;21.63;69.00;96181.75;10335315;28;97172;-58
2022/08/19 12:04:04;;;;;;;6.25;5.65;;;;;;;21.70;67.08;96171.88;10335701;28;96704;-58
2022/08/19 12:09:10;;;;;;;5.45;4.97;;;;;;;21.75;66.33;96174.69;10334002;28;97151;-58
2022/08/19 12:14:14;;;;;;;6.93;6.30;;;;;;;21.77;65.37;96167.28;10335027;28;96714;-59
2022/08/19 12:19:18;;;;;;;5.57;5.07;;;;;;;21.73;64.95;96182.06;10333693;28;96841;-58
2022/08/19 12:24:25;;;;;;;5.72;5.00;;;;;;;21.64;65.08;96173.56;10334352;28;96857;-58
2022/08/19 12:29:29;;;;;;;;;;;;;;;21.73;65.93;96162.63;10334165;28;97081;-59
2022/08/19 12:34:33;;;;;;;6.88;6.28;;;;;;;22.09;65.09;96159.16;10333970;28;97808;-58
2022/08/19 12:39:39;;;;;;;7.15;6.40;;;;;;;22.41;64.42;96153.69;10333606;28;96833;-58
2022/08/19 12:44:44;;;;;;;6.55;5.90;;;;;;;22.45;64.27;96157.50;10333376;28;97714;-58
2022/08/19 12:49:47;;;;;;;6.85;6.25;;;;;;;22.38;62.58;96176.22;10333112;28;97117;-58
2022/08/19 12:54:58;;;;;;;7.28;6.57;;;;;;;22.13;62.25;96181.66;10334130;28;98307;-58
2022/08/19 13:00:03;;;;;;;;;;;;;;;21.87;64.20;96180.91;10333657;28;97636;-58
2022/08/19 13:05:09;;;;;;;8.13;7.32;;;;;;;21.59;63.95;96181.34;10333374;28;97218;-58
2022/08/19 13:10:16;;;;;;;8.88;7.75;;;;;;;21.43;65.90;96180.06;10331337;28;96888;-59
2022/08/19 13:15:21;;;;;;;8.80;7.90;;;;;;;21.59;64.64;96181.34;10333074;28;98079;-58
2022/08/19 13:20:26;;;;;;;8.73;7.85;;;;;;;21.72;65.17;96185.75;10332447;28;98025;-58
2022/08/19 13:25:31;;;;;;;8.23;7.43;;;;;;;21.83;64.74;96186.88;10332320;28;96763;-59
2022/08/19 13:36:00;;;;;;;8.15;7.38;;;;;;;22.33;63.51;96186.72;10328527;28;96791;-58
2022/08/19 13:41:07;;;;;;;8.07;7.28;;;;;;;22.31;62.98;96172.03;10331093;28;97201;-58
2022/08/19 13:46:16;;;;;;;8.40;7.18;;;;;;;22.19;62.06;96177.28;10332845;28;96948;-58
2022/08/19 13:51:19;;;;;;;8.63;7.82;;;;;;;22.01;60.65;96180.75;10331826;28;96840;-58
2022/08/19 13:56:23;;;;;;;7.97;7.18;;;;;;;21.94;62.64;96172.06;10331914;28;98595;-59
2022/08/19 14:01:30;;;;;;;8.10;7.30;;;;;;;21.78;62.02;96179.56;10330529;28;96855;-58
2022/08/19 14:06:32;;;;;;;13.68;8.68;;;;;;;21.53;62.43;96181.41;10330925;28;97088;-58
2022/08/19 14:11:37;;;;;;;9.93;8.60;;;;;;;21.32;63.77;96186.88;10331218;28;97660;-59
2022/08/19 14:16:40;;;;;;;8.65;7.75;;;;;;;21.34;63.57;96194.63;10331779;28;97076;-59
2022/08/19 14:21:43;;;;;;;8.10;7.30;;;;;;;21.22;64.79;96186.53;10330771;28;96885;-58
2022/08/19 14:26:47;;;;;;;9.38;8.40;;;;;;;21.08;65.79;96193.78;10331151;28;97687;-58
2022/08/19 14:31:50;;;;;;;9.50;8.60;;;;;;;21.02;66.04;96186.72;10329932;28;96882;-59
2022/08/19 14:36:53;;;;;;;9.50;8.50;;;;;;;21.13;66.57;96188.66;10331662;28;98796;-59
2022/08/19 14:41:58;;;;;;;10.27;9.25;;;;;;;21.04;67.08;96195.28;10327446;28;96803;-59
2022/08/19 14:47:02;;;;;;;10.25;9.32;;;;;;;20.88;68.24;96182.53;10330302;28;96809;-60
2022/08/19 14:52:06;;;;;;;9.80;8.90;;;;;;;20.87;68.47;96186.19;10331445;28;96806;-58
2022/08/19 14:57:12;;;;;;;11.33;10.17;;;;;;;20.92;68.81;96194.31;10337655;28;96882;-59
2022/08/19 15:02:16;;;;;;;10.70;9.52;;;;;;;20.86;68.86;96197.81;10337097;28;96816;-59
2022/08/19 15:07:36;;;;;;;12.48;11.18;;;;;;;20.71;68.78;96193.59;10336850;28;97635;-58
2022/08/19 15:12:42;;;;;;;11.43;10.32;;;;;;;20.62;69.84;96202.84;10336823;28;98571;-59
2022/08/19 15:17:46;;;;;;;13.75;12.35;;;;;;;20.30;71.61;96221.31;10336615;28;97100;-57
2022/08/19 15:22:49;;;;;;;14.00;12.60;;;;;;;20.16;71.55;96209.13;10336478;28;96775;-59
2022/08/19 15:27:53;;;;;;;14.10;12.70;;;;;;;20.15;71.95;96208.34;10336738;28;96726;-58
2022/08/19 15:32:58;;;;;;;16.02;14.32;;;;;;;20.16;72.05;96203.84;10333592;28;97903;-58
2022/08/19 15:38:01;;;;;;;15.00;13.60;;;;;;;20.23;70.74;96203.81;10330873;28;96796;-59
2022/08/19 15:43:05;;;;;;;14.32;12.93;;;;;;;20.26;71.01;96206.88;10324738;28;97892;-58
2022/08/19 15:48:08;;;;;;;14.57;13.18;;;;;;;20.33;70.42;96215.59;10328435;28;96760;-59
2022/08/19 15:53:11;;;;;;;13.77;12.48;;;;;;;20.35;69.33;96212.75;10300294;28;96913;-58
2022/08/19 16:08:58;;;;;;;13.95;12.65;;;;;;;20.39;68.84;96200.72;10300934;28;98437;-58
2022/08/19 16:14:02;;;;;;;14.57;13.07;;;;;;;20.50;69.42;96200.03;10303630;28;97274;-58
2022/08/19 16:19:08;;;;;;;13.80;12.43;;;;;;;21.12;68.32;96200.31;10331976;28;97251;-59
2022/08/19 16:24:16;;;;;;;17.23;12.25;;;;;;;21.99;66.12;96202.25;10334095;28;97764;-59
2022/08/19 16:29:22;;;;;;;13.77;11.75;;;;;;;22.02;66.16;96201.00;10333757;28;97087;-59
2022/08/19 16:34:41;;;;;;;11.57;10.48;;;;;;;22.40;64.26;96202.63;10332628;28;97159;-59
2022/08/19 16:39:44;;;;;;;10.87;9.87;;;;;;;22.34;63.16;96203.53;10328545;28;96807;-58
2022/08/19 16:44:48;;;;;;;10.50;9.50;;;;;;;22.29;63.42;96211.38;10332052;28;96839;-58
2022/08/19 16:49:51;;;;;;;;;;;;;;;22.37;64.06;96214.53;10333605;28;96877;-58
2022/08/19 16:54:57;;;;;;;12.27;11.07;;;;;;;22.37;63.30;96219.88;10333559;28;96807;-59
2022/08/19 17:00:07;;;;;;;11.88;10.77;;;;;;;22.04;62.09;96206.94;10330029;28;96794;-58
2022/08/19 17:05:10;;;;;;;11.48;10.38;;;;;;;21.86;63.52;96200.53;10331942;28;98187;-59
2022/08/19 17:10:13;;;;;;;12.43;11.13;;;;;;;21.71;64.09;96204.56;10332785;28;97126;-58
2022/08/19 17:15:17;;;;;;;12.52;11.35;;;;;;;21.60;64.33;96203.44;10329314;28;96763;-59
2022/08/19 17:20:20;;;;;;;;;;;;;;;21.53;64.29;96213.31;10329278;28;97163;-58
2022/08/19 17:25:23;;;;;;;13.00;11.65;;;;;;;21.17;64.98;96209.47;10331273;28;96939;-60
2022/08/19 17:30:27;;;;;;;12.32;11.13;;;;;;;21.04;65.11;96221.03;10349321;28;98060;-58
2022/08/19 17:35:31;;;;;;;12.90;11.52;;;;;;;21.00;65.00;96217.97;10331082;28;96734;-58
2022/08/19 17:40:34;;;;;;;13.35;12.07;;;;;;;20.90;65.27;96212.31;10317590;28;97046;-58
2022/08/19 17:45:41;;;;;;;13.10;11.80;;;;;;;20.82;65.64;96213.38;10326904;28;97169;-59
2022/08/19 17:50:43;;;;;;;12.65;11.13;;;;;;;20.60;65.80;96226.13;10329329;28;96781;-57
2022/08/19 17:55:49;;;;;;;13.20;11.85;;;;;;;20.46;66.09;96217.41;10325181;28;96959;-59
2022/08/19 18:00:54;;;;;;;16.70;15.07;;;;;;;20.44;66.78;96214.13;10326150;28;97721;-58
2022/08/19 18:05:57;;;;;;;14.23;12.73;;;;;;;20.18;67.31;96229.13;10327691;28;96815;-59
2022/08/19 18:11:00;;;;;;;18.98;17.05;;;;;;;19.93;68.74;96221.03;10326229;28;97399;-59
2022/08/19 18:16:07;;;;;;;16.92;15.23;;;;;;;19.91;69.48;96228.38;10327472;28;97659;-58
2022/08/19 18:21:11;;;;;;;16.85;15.07;;;;;;;19.79;70.38;96243.25;10326960;28;99013;-58
2022/08/19 18:26:13;;;;;;;14.65;12.27;;;;;;;19.62;70.61;96250.78;10325976;28;96949;-58
2022/08/19 18:31:18;;;;;;;13.60;11.85;;;;;;;19.46;71.67;96249.38;10334034;28;96854;-59
2022/08/19 18:36:21;;;;;;;16.27;12.55;;;;;;;19.40;71.66;96248.38;10335302;28;97951;-58
2022/08/19 18:52:26;;;;;;;15.07;11.73;;;;;;;18.88;72.88;96269.25;10333324;28;97408;-57
2022/08/19 18:57:29;;;;;;;17.38;12.63;;;;;;;18.80;73.49;96269.38;10331808;28;97932;-58
2022/08/19 19:02:37;;;;;;;17.20;12.18;;;;;;;18.67;74.12;96270.16;10335187;28;96854;-58
2022/08/19 19:07:41;;;;;;;15.65;11.93;;;;;;;18.52;73.89;96271.31;10332907;28;96918;-58
2022/08/19 19:12:44;;;;;;;14.33;10.67;;;;;;;18.51;72.52;96273.13;10333053;28;98428;-58
2022/08/19 19:17:48;;;;;;;17.00;11.68;;;;;;;18.55;72.89;96281.50;10334231;28;96861;-58
2022/08/19 19:22:51;;;;;;;18.23;14.38;;;;;;;18.48;73.37;96300.81;10331948;28;96964;-59
2022/08/19 19:27:59;;;;;;;16.70;13.85;;;;;;;18.38;74.01;96302.19;10327808;28;98124;-58
2022/08/19 19:33:04;;;;;;;11.68;10.35;;;;;;;18.16;74.27;96288.22;10332332;28;97041;-59
2022/08/19 19:38:07;;;;;;;14.00;10.70;;;;;;;18.10;75.10;96316.25;10332121;28;96860;-58
2022/08/19 19:43:09;;;;;;;15.68;10.30;;;;;;;18.15;75.08;96318.28;10335509;28;96828;-58
2022/08/19 19:48:15;;;;;;;14.55;10.82;;;;;;;18.20;74.49;96311.41;10332969;28;96890;-59
2022/08/19 19:53:17;;;;;;;12.38;10.70;;;;;;;18.21;73.25;96313.06;10331579;28;96998;-59
2022/08/19 19:58:20;;;;;;;15.05;11.07;;;;;;;18.18;73.58;96323.22;10330515;28;97300;-58
2022/08/19 20:03:32;;;;;;;11.77;10.10;;;;;;;18.16;73.81;96325.22;10329545;28;98651;-60
2022/08/19 20:13:56;;;;;;;10.90;9.77;;;;;;;17.91;74.54;96318.56;10329882;28;96909;-58
2022/08/19 20:19:01;;;;;;;13.48;11.30;;;;;;;17.87;74.36;96316.47;10332532;28;97486;-57
2022/08/19 20:24:04;;;;;;;12.35;9.43;;;;;;;17.63;74.27;96326.44;10328143;28;98008;-58
2022/08/19 20:29:11;;;;;;;14.13;10.23;;;;;;;17.52;75.24;96329.56;10337194;28;97149;-58
2022/08/19 20:34:35;;;;;;;15.90;10.32;;;;;;;17.45;75.69;96344.53;10332525;28;96843;-57
2022/08/19 20:39:38;;;;;;;16.52;12.57;;;;;;;17.21;76.31;96343.88;10334338;28;97229;-58
2022/08/19 20:44:41;;;;;;;12.75;10.02;;;;;;;17.17;77.00;96337.34;10333422;28;96783;-58
2022/08/19 20:49:46;;;;;;;11.98;9.70;;;;;;;17.24;76.26;96332.94;10332362;28;97117;-58
2022/08/19 20:54:49;;;;;;;13.10;9.52;;;;;;;17.17;76.77;96343.44;10332981;28;97112;-57
2022/08/19 20:59:51;;;;;;;12.50;9.68;;;;;;;17.21;76.53;96338.59;10332951;28;96864;-57
2022/08/19 21:04:56;;;;;;;11.80;9.40;;;;;;;17.12;76.51;96340.53;10333179;28;96838;-58
2022/08/19 21:10:05;;;;;;;11.52;9.70;;;;;;;17.09;76.45;96345.38;10332507;28;96840;-57
2022/08/19 21:15:09;;;;;;;12.35;9.13;;;;;;;17.20;76.15;96342.25;10332567;28;97828;-58
2022/08/19 21:20:13;;;;;;;12.52;9.32;;;;;;;17.22;76.22;96345.50;10323275;28;96751;-58
2022/08/19 21:25:16;;;;;;;12.27;8.98;;;;;;;17.24;75.66;96345.34;10333107;28;96831;-58
2022/08/19 21:30:19;;;;;;;11.23;10.00;;;;;;;17.34;75.46;96344.00;10332225;28;97410;-58
2022/08/19 21:35:23;;;;;;;11.18;9.70;;;;;;;17.36;75.27;96347.28;10331622;28;97087;-58
2022/08/19 21:40:27;;;;;;;10.95;9.30;;;;;;;17.38;75.32;96350.53;10330854;28;96911;-57
2022/08/19 21:45:30;;;;;;;13.05;9.98;;;;;;;17.34;75.89;96353.78;10331984;28;96921;-57
2022/08/19 21:50:34;;;;;;;12.05;9.93;;;;;;;17.32;76.69;96348.69;10331558;28;96885;-58
2022/08/19 21:55:37;;;;;;;12.75;11.38;;;;;;;17.27;77.02;96345.78;10331805;28;96756;-58
2022/08/19 22:00:39;;;;;;;12.30;10.25;;;;;;;17.26;77.29;96349.41;10330476;28;96750;-58
2022/08/19 22:05:44;;;;;;;14.07;11.77;;;;;;;17.27;77.65;96348.41;10330995;28;98083;-58
2022/08/19 22:10:48;;;;;;;15.25;11.38;;;;;;;17.10;77.71;96349.66;10331394;28;96927;-58
2022/08/19 22:15:51;;;;;;;15.43;10.60;;;;;;;17.21;77.76;96356.25;10331530;28;96774;-58
2022/08/19 22:20:55;;;;;;;12.93;10.52;;;;;;;17.21;78.34;96359.72;10330716;28;97301;-58
2022/08/19 22:25:58;;;;;;;12.93;11.57;;;;;;;17.13;78.46;96367.75;10330504;28;96709;-58
2022/08/19 22:31:01;;;;;;;16.70;12.32;;;;;;;17.12;78.95;96360.84;10329665;28;96888;-58
2022/08/19 22:36:07;;;;;;;15.30;11.43;;;;;;;17.16;78.89;96362.09;10330346;28;96927;-57
2022/08/19 22:41:11;;;;;;;13.35;10.52;;;;;;;17.21;78.95;96366.81;10330563;28;98036;-57
2022/08/19 22:46:14;;;;;;;15.13;11.07;;;;;;;17.23;79.23;96360.38;10329599;28;98673;-58
2022/08/19 22:56:42;;;;;;;12.23;9.55;;;;;;;17.24;79.30;96348.78;10330219;28;96770;-58
2022/08/19 23:01:45;;;;;;;15.10;11.33;;;;;;;17.19;79.92;96340.59;10329688;28;96834;-57
2022/08/19 23:06:51;;;;;;;13.17;11.47;;;;;;;17.19;80.24;96341.41;10330864;28;97188;-57
2022/08/19 23:11:54;;;;;;;14.35;12.23;;;;;;;17.13;80.38;96344.00;10330509;28;97099;-58
2022/08/19 23:16:57;;;;;;;14.95;12.77;;;;;;;17.09;80.61;96343.56;10336207;28;96636;-58
2022/08/19 23:22:04;;;;;;;14.45;11.43;;;;;;;17.07;80.76;96342.09;10335188;28;97229;-57
2022/08/19 23:32:26;;;;;;;8.68;7.78;;;;;;;17.27;79.82;96334.41;10335868;28;97546;-57
2022/08/19 23:37:31;;;;;;;14.05;9.75;;;;;;;17.35;79.83;96316.63;10348461;28;96850;-57
2022/08/19 23:42:34;;;;;;;13.10;8.60;;;;;;;17.38;79.62;96308.28;10334827;28;96779;-58
2022/08/19 23:47:36;;;;;;;11.93;10.63;;;;;;;17.35;79.75;96307.84;10335780;28;96879;-57
2022/08/19 23:52:46;;;;;;;13.40;10.93;;;;;;;17.14;80.83;96303.38;10335687;28;97175;-58
2022/08/19 23:57:49;;;;;;;17.10;12.35;;;;;;;17.03;81.60;96299.44;10335263;28;96811;-58
